Terminal Aerodrome Forecast
Issued by NWS

Home | Current Version | Previous Version | Graphics & Text | Print | Product List | Glossary On
Versions: 1 2 3 4 5 6 7 8 9 10 11 12 13 14 15 16 17
778
FTUS43 KMPX 171026 AAA
TAFRWF
TAF AMD
KRWF 171026Z 1710/1806 14018G26KT P6SM BKN025 OVC110
     FM171300 16015KT P6SM OVC012
     FM171500 17006KT 4SM -DZ BR OVC007
     FM171900 34006KT 5SM BR OVC010
     FM172200 35008KT P6SM OVC020=

USA.gov is the U.S. government's official web portal to all federal, state and local government web resources and services.